sensor_id;sensor_type;location;lat;lon;timestamp;P1;durP1;ratioP1;P2;durP2;ratioP2
72590;SDS011;60625;51.212;5.952;2023-04-03T00:02:16;12.30;;;5.20;;
72590;SDS011;60625;51.212;5.952;2023-04-03T00:07:16;8.80;;;4.70;;
72590;SDS011;60625;51.212;5.952;2023-04-03T00:12:17;9.30;;;4.60;;
72590;SDS011;60625;51.212;5.952;2023-04-03T00:17:17;9.90;;;4.80;;
72590;SDS011;60625;51.212;5.952;2023-04-03T00:22:18;8.70;;;4.70;;
72590;SDS011;60625;51.212;5.952;2023-04-03T00:27:18;13.40;;;5.20;;
72590;SDS011;60625;51.212;5.952;2023-04-03T00:32:19;8.90;;;4.80;;
72590;SDS011;60625;51.212;5.952;2023-04-03T00:37:20;8.40;;;4.20;;
72590;SDS011;60625;51.212;5.952;2023-04-03T00:42:20;8.00;;;3.60;;
72590;SDS011;60625;51.212;5.952;2023-04-03T00:47:21;8.70;;;4.50;;
72590;SDS011;60625;51.212;5.952;2023-04-03T00:52:26;10.20;;;4.50;;
72590;SDS011;60625;51.212;5.952;2023-04-03T00:57:30;8.80;;;4.70;;
72590;SDS011;60625;51.212;5.952;2023-04-03T01:02:31;9.40;;;5.00;;
72590;SDS011;60625;51.212;5.952;2023-04-03T01:07:33;9.50;;;5.00;;
72590;SDS011;60625;51.212;5.952;2023-04-03T01:12:40;9.80;;;4.30;;
72590;SDS011;60625;51.212;5.952;2023-04-03T01:23:16;9.30;;;4.80;;
72590;SDS011;60625;51.212;5.952;2023-04-03T01:28:25;10.00;;;4.70;;
72590;SDS011;60625;51.212;5.952;2023-04-03T01:33:28;13.00;;;5.50;;
72590;SDS011;60625;51.212;5.952;2023-04-03T01:38:29;10.80;;;5.30;;
72590;SDS011;60625;51.212;5.952;2023-04-03T01:43:29;11.30;;;5.00;;
72590;SDS011;60625;51.212;5.952;2023-04-03T01:48:30;11.90;;;5.50;;
72590;SDS011;60625;51.212;5.952;2023-04-03T01:53:31;11.30;;;5.70;;
72590;SDS011;60625;51.212;5.952;2023-04-03T01:58:32;11.60;;;5.90;;
72590;SDS011;60625;51.212;5.952;2023-04-03T02:03:33;13.30;;;5.70;;
72590;SDS011;60625;51.212;5.952;2023-04-03T02:08:34;13.60;;;6.10;;
72590;SDS011;60625;51.212;5.952;2023-04-03T02:13:34;10.30;;;5.70;;
72590;SDS011;60625;51.212;5.952;2023-04-03T02:18:35;9.70;;;4.90;;
72590;SDS011;60625;51.212;5.952;2023-04-03T02:23:36;11.10;;;5.00;;
72590;SDS011;60625;51.212;5.952;2023-04-03T02:28:37;11.90;;;6.00;;
72590;SDS011;60625;51.212;5.952;2023-04-03T02:33:38;9.30;;;5.20;;
72590;SDS011;60625;51.212;5.952;2023-04-03T02:38:41;11.80;;;6.00;;
72590;SDS011;60625;51.212;5.952;2023-04-03T02:43:43;10.00;;;6.10;;
72590;SDS011;60625;51.212;5.952;2023-04-03T02:48:44;11.30;;;6.00;;
72590;SDS011;60625;51.212;5.952;2023-04-03T02:53:45;11.00;;;6.40;;
72590;SDS011;60625;51.212;5.952;2023-04-03T02:58:48;10.80;;;6.00;;
72590;SDS011;60625;51.212;5.952;2023-04-03T03:03:50;10.60;;;6.30;;
72590;SDS011;60625;51.212;5.952;2023-04-03T03:08:50;11.10;;;6.40;;
72590;SDS011;60625;51.212;5.952;2023-04-03T03:13:51;10.30;;;5.80;;
72590;SDS011;60625;51.212;5.952;2023-04-03T03:18:52;16.50;;;6.00;;
72590;SDS011;60625;51.212;5.952;2023-04-03T03:23:53;13.10;;;5.80;;
72590;SDS011;60625;51.212;5.952;2023-04-03T03:28:53;9.70;;;5.80;;
72590;SDS011;60625;51.212;5.952;2023-04-03T03:33:54;12.70;;;5.90;;
72590;SDS011;60625;51.212;5.952;2023-04-03T03:38:56;11.90;;;6.50;;
72590;SDS011;60625;51.212;5.952;2023-04-03T03:43:58;13.20;;;6.60;;
72590;SDS011;60625;51.212;5.952;2023-04-03T03:49:01;10.90;;;5.30;;
72590;SDS011;60625;51.212;5.952;2023-04-03T03:54:02;12.80;;;6.00;;
72590;SDS011;60625;51.212;5.952;2023-04-03T03:59:02;12.30;;;5.40;;
72590;SDS011;60625;51.212;5.952;2023-04-03T04:04:04;10.70;;;4.90;;
72590;SDS011;60625;51.212;5.952;2023-04-03T04:09:05;11.60;;;5.30;;
72590;SDS011;60625;51.212;5.952;2023-04-03T04:14:07;10.90;;;5.90;;
72590;SDS011;60625;51.212;5.952;2023-04-03T04:19:08;13.70;;;5.30;;
72590;SDS011;60625;51.212;5.952;2023-04-03T04:24:10;12.30;;;4.70;;
72590;SDS011;60625;51.212;5.952;2023-04-03T04:29:11;10.90;;;4.60;;
72590;SDS011;60625;51.212;5.952;2023-04-03T04:34:12;11.30;;;4.70;;
72590;SDS011;60625;51.212;5.952;2023-04-03T04:39:16;12.70;;;4.40;;
72590;SDS011;60625;51.212;5.952;2023-04-03T04:44:17;9.90;;;4.10;;
72590;SDS011;60625;51.212;5.952;2023-04-03T04:49:18;8.70;;;4.20;;
72590;SDS011;60625;51.212;5.952;2023-04-03T04:54:19;9.90;;;4.70;;
72590;SDS011;60625;51.212;5.952;2023-04-03T04:59:20;8.70;;;3.90;;
72590;SDS011;60625;51.212;5.952;2023-04-03T05:04:21;9.20;;;3.60;;
72590;SDS011;60625;51.212;5.952;2023-04-03T05:09:25;8.70;;;3.70;;
72590;SDS011;60625;51.212;5.952;2023-04-03T05:14:26;8.70;;;3.60;;
72590;SDS011;60625;51.212;5.952;2023-04-03T05:19:28;8.10;;;3.50;;
72590;SDS011;60625;51.212;5.952;2023-04-03T05:24:30;8.70;;;2.60;;
72590;SDS011;60625;51.212;5.952;2023-04-03T05:29:31;10.60;;;3.20;;
72590;SDS011;60625;51.212;5.952;2023-04-03T05:34:32;8.20;;;2.90;;
72590;SDS011;60625;51.212;5.952;2023-04-03T05:39:34;7.40;;;2.60;;
72590;SDS011;60625;51.212;5.952;2023-04-03T05:44:35;10.90;;;3.50;;
72590;SDS011;60625;51.212;5.952;2023-04-03T05:49:36;6.60;;;2.80;;
72590;SDS011;60625;51.212;5.952;2023-04-03T05:54:41;7.90;;;3.00;;
72590;SDS011;60625;51.212;5.952;2023-04-03T05:59:47;8.80;;;2.80;;
72590;SDS011;60625;51.212;5.952;2023-04-03T06:04:48;12.60;;;2.80;;
72590;SDS011;60625;51.212;5.952;2023-04-03T06:09:50;10.90;;;3.00;;
72590;SDS011;60625;51.212;5.952;2023-04-03T06:14:51;6.50;;;1.90;;
72590;SDS011;60625;51.212;5.952;2023-04-03T06:19:52;7.20;;;2.10;;
72590;SDS011;60625;51.212;5.952;2023-04-03T06:24:54;9.70;;;2.60;;
72590;SDS011;60625;51.212;5.952;2023-04-03T06:29:54;9.90;;;2.60;;
72590;SDS011;60625;51.212;5.952;2023-04-03T06:34:55;8.00;;;2.40;;
72590;SDS011;60625;51.212;5.952;2023-04-03T06:39:57;9.80;;;2.70;;
72590;SDS011;60625;51.212;5.952;2023-04-03T06:44:58;9.60;;;3.00;;
72590;SDS011;60625;51.212;5.952;2023-04-03T06:49:59;7.20;;;2.30;;
72590;SDS011;60625;51.212;5.952;2023-04-03T06:55:00;8.50;;;2.90;;
72590;SDS011;60625;51.212;5.952;2023-04-03T07:00:01;10.80;;;2.80;;
72590;SDS011;60625;51.212;5.952;2023-04-03T07:05:02;10.30;;;2.70;;
72590;SDS011;60625;51.212;5.952;2023-04-03T07:10:03;10.20;;;3.00;;
72590;SDS011;60625;51.212;5.952;2023-04-03T07:15:06;10.70;;;2.80;;
72590;SDS011;60625;51.212;5.952;2023-04-03T07:20:09;11.20;;;2.50;;
72590;SDS011;60625;51.212;5.952;2023-04-03T07:25:09;12.60;;;2.50;;
72590;SDS011;60625;51.212;5.952;2023-04-03T07:30:11;17.60;;;2.70;;
72590;SDS011;60625;51.212;5.952;2023-04-03T07:35:14;7.90;;;2.40;;
72590;SDS011;60625;51.212;5.952;2023-04-03T07:40:14;9.40;;;2.30;;
72590;SDS011;60625;51.212;5.952;2023-04-03T07:45:15;11.60;;;2.60;;
72590;SDS011;60625;51.212;5.952;2023-04-03T07:50:18;11.10;;;2.70;;
72590;SDS011;60625;51.212;5.952;2023-04-03T07:55:19;7.20;;;2.50;;
72590;SDS011;60625;51.212;5.952;2023-04-03T08:00:19;8.10;;;2.50;;
72590;SDS011;60625;51.212;5.952;2023-04-03T08:05:21;12.40;;;2.90;;
72590;SDS011;60625;51.212;5.952;2023-04-03T08:10:21;11.60;;;2.80;;
72590;SDS011;60625;51.212;5.952;2023-04-03T08:15:22;7.80;;;2.30;;
72590;SDS011;60625;51.212;5.952;2023-04-03T08:20:23;11.50;;;3.00;;
72590;SDS011;60625;51.212;5.952;2023-04-03T08:25:25;8.00;;;2.10;;
72590;SDS011;60625;51.212;5.952;2023-04-03T08:30:25;6.90;;;2.00;;
72590;SDS011;60625;51.212;5.952;2023-04-03T08:35:26;8.80;;;2.00;;
72590;SDS011;60625;51.212;5.952;2023-04-03T08:40:26;6.60;;;1.90;;
72590;SDS011;60625;51.212;5.952;2023-04-03T08:45:42;8.50;;;1.70;;
72590;SDS011;60625;51.212;5.952;2023-04-03T08:50:47;7.50;;;1.80;;
72590;SDS011;60625;51.212;5.952;2023-04-03T08:55:53;7.60;;;1.70;;
72590;SDS011;60625;51.212;5.952;2023-04-03T09:01:06;5.40;;;1.30;;
72590;SDS011;60625;51.212;5.952;2023-04-03T09:06:21;6.20;;;1.30;;
72590;SDS011;60625;51.212;5.952;2023-04-03T09:11:41;9.80;;;1.30;;
72590;SDS011;60625;51.212;5.952;2023-04-03T09:22:23;8.70;;;1.40;;
72590;SDS011;60625;51.212;5.952;2023-04-03T09:27:26;7.30;;;1.40;;
72590;SDS011;60625;51.212;5.952;2023-04-03T09:32:27;6.20;;;1.20;;
72590;SDS011;60625;51.212;5.952;2023-04-03T09:37:39;6.70;;;1.20;;
72590;SDS011;60625;51.212;5.952;2023-04-03T09:42:42;6.00;;;1.50;;
72590;SDS011;60625;51.212;5.952;2023-04-03T09:47:43;5.80;;;1.40;;
72590;SDS011;60625;51.212;5.952;2023-04-03T09:52:49;9.70;;;1.20;;
72590;SDS011;60625;51.212;5.952;2023-04-03T09:57:57;7.60;;;1.30;;
72590;SDS011;60625;51.212;5.952;2023-04-03T10:03:00;6.90;;;1.30;;
72590;SDS011;60625;51.212;5.952;2023-04-03T10:08:19;5.40;;;1.20;;
72590;SDS011;60625;51.212;5.952;2023-04-03T10:13:21;5.20;;;1.20;;
72590;SDS011;60625;51.212;5.952;2023-04-03T10:24:21;3.90;;;0.80;;
72590;SDS011;60625;51.212;5.952;2023-04-03T10:41:02;4.20;;;1.40;;
72590;SDS011;60625;51.212;5.952;2023-04-03T10:46:13;5.90;;;0.90;;
72590;SDS011;60625;51.212;5.952;2023-04-03T10:56:41;6.30;;;0.90;;
72590;SDS011;60625;51.212;5.952;2023-04-03T11:01:46;6.90;;;0.90;;
72590;SDS011;60625;51.212;5.952;2023-04-03T11:06:53;3.50;;;0.70;;
72590;SDS011;60625;51.212;5.952;2023-04-03T11:12:23;4.10;;;0.90;;
72590;SDS011;60625;51.212;5.952;2023-04-03T11:17:35;4.50;;;0.80;;
72590;SDS011;60625;51.212;5.952;2023-04-03T11:22:45;3.40;;;0.70;;
72590;SDS011;60625;51.212;5.952;2023-04-03T11:27:59;3.40;;;0.70;;
72590;SDS011;60625;51.212;5.952;2023-04-03T11:38:55;4.60;;;0.70;;
72590;SDS011;60625;51.212;5.952;2023-04-03T11:44:02;4.20;;;0.70;;
72590;SDS011;60625;51.212;5.952;2023-04-03T11:54:59;3.40;;;0.70;;
72590;SDS011;60625;51.212;5.952;2023-04-03T12:00:41;4.90;;;1.00;;
72590;SDS011;60625;51.212;5.952;2023-04-03T12:05:41;2.80;;;0.90;;
72590;SDS011;60625;51.212;5.952;2023-04-03T12:10:42;2.90;;;0.70;;
72590;SDS011;60625;51.212;5.952;2023-04-03T12:15:50;5.80;;;0.80;;
72590;SDS011;60625;51.212;5.952;2023-04-03T12:25:59;5.80;;;1.20;;
72590;SDS011;60625;51.212;5.952;2023-04-03T12:31:08;5.90;;;1.30;;
72590;SDS011;60625;51.212;5.952;2023-04-03T12:36:15;5.90;;;1.10;;
72590;SDS011;60625;51.212;5.952;2023-04-03T12:46:46;5.10;;;1.10;;
72590;SDS011;60625;51.212;5.952;2023-04-03T12:51:48;6.40;;;1.20;;
72590;SDS011;60625;51.212;5.952;2023-04-03T12:56:49;6.20;;;1.20;;
72590;SDS011;60625;51.212;5.952;2023-04-03T13:01:59;7.60;;;1.30;;
72590;SDS011;60625;51.212;5.952;2023-04-03T13:07:01;4.40;;;1.10;;
72590;SDS011;60625;51.212;5.952;2023-04-03T13:12:10;3.30;;;0.90;;
72590;SDS011;60625;51.212;5.952;2023-04-03T13:17:15;3.70;;;1.00;;
72590;SDS011;60625;51.212;5.952;2023-04-03T13:22:36;5.20;;;1.30;;
72590;SDS011;60625;51.212;5.952;2023-04-03T13:27:49;6.20;;;1.00;;
72590;SDS011;60625;51.212;5.952;2023-04-03T13:32:51;4.20;;;1.30;;
72590;SDS011;60625;51.212;5.952;2023-04-03T13:37:58;3.60;;;1.10;;
72590;SDS011;60625;51.212;5.952;2023-04-03T13:43:18;4.30;;;1.00;;
72590;SDS011;60625;51.212;5.952;2023-04-03T13:48:21;3.90;;;1.10;;
72590;SDS011;60625;51.212;5.952;2023-04-03T13:53:24;6.10;;;1.30;;
72590;SDS011;60625;51.212;5.952;2023-04-03T13:58:28;6.40;;;1.20;;
72590;SDS011;60625;51.212;5.952;2023-04-03T14:08:43;4.80;;;1.20;;
72590;SDS011;60625;51.212;5.952;2023-04-03T14:13:46;5.90;;;1.40;;
72590;SDS011;60625;51.212;5.952;2023-04-03T14:18:48;6.60;;;1.10;;
72590;SDS011;60625;51.212;5.952;2023-04-03T14:23:50;4.60;;;1.20;;
72590;SDS011;60625;51.212;5.952;2023-04-03T14:28:53;7.80;;;1.10;;
72590;SDS011;60625;51.212;5.952;2023-04-03T14:33:55;4.60;;;1.30;;
72590;SDS011;60625;51.212;5.952;2023-04-03T14:38:57;4.00;;;1.20;;
72590;SDS011;60625;51.212;5.952;2023-04-03T14:43:58;4.20;;;1.00;;
72590;SDS011;60625;51.212;5.952;2023-04-03T14:48:59;5.50;;;1.20;;
72590;SDS011;60625;51.212;5.952;2023-04-03T14:53:59;7.70;;;1.40;;
72590;SDS011;60625;51.212;5.952;2023-04-03T14:59:01;5.70;;;1.40;;
72590;SDS011;60625;51.212;5.952;2023-04-03T15:04:09;3.50;;;1.30;;
72590;SDS011;60625;51.212;5.952;2023-04-03T15:09:20;6.00;;;1.30;;
72590;SDS011;60625;51.212;5.952;2023-04-03T15:14:25;5.40;;;1.40;;
72590;SDS011;60625;51.212;5.952;2023-04-03T15:19:25;7.40;;;1.20;;
72590;SDS011;60625;51.212;5.952;2023-04-03T15:24:26;7.50;;;1.50;;
72590;SDS011;60625;51.212;5.952;2023-04-03T15:29:27;4.00;;;1.40;;
72590;SDS011;60625;51.212;5.952;2023-04-03T15:34:28;4.30;;;1.30;;
72590;SDS011;60625;51.212;5.952;2023-04-03T15:39:29;6.30;;;1.40;;
72590;SDS011;60625;51.212;5.952;2023-04-03T15:44:29;4.70;;;1.60;;
72590;SDS011;60625;51.212;5.952;2023-04-03T15:49:33;5.30;;;1.20;;
72590;SDS011;60625;51.212;5.952;2023-04-03T15:54:34;4.80;;;1.00;;
72590;SDS011;60625;51.212;5.952;2023-04-03T15:59:34;5.10;;;1.20;;
72590;SDS011;60625;51.212;5.952;2023-04-03T16:04:35;4.90;;;0.80;;
72590;SDS011;60625;51.212;5.952;2023-04-03T16:09:36;5.20;;;1.20;;
72590;SDS011;60625;51.212;5.952;2023-04-03T16:14:36;6.00;;;1.30;;
72590;SDS011;60625;51.212;5.952;2023-04-03T16:19:37;4.80;;;1.20;;
72590;SDS011;60625;51.212;5.952;2023-04-03T16:24:37;6.40;;;1.50;;
72590;SDS011;60625;51.212;5.952;2023-04-03T16:29:38;7.50;;;1.30;;
72590;SDS011;60625;51.212;5.952;2023-04-03T16:34:39;6.50;;;1.20;;
72590;SDS011;60625;51.212;5.952;2023-04-03T16:39:40;4.80;;;1.00;;
72590;SDS011;60625;51.212;5.952;2023-04-03T16:44:40;5.70;;;1.20;;
72590;SDS011;60625;51.212;5.952;2023-04-03T16:49:41;4.70;;;1.00;;
72590;SDS011;60625;51.212;5.952;2023-04-03T16:54:41;7.20;;;1.10;;
72590;SDS011;60625;51.212;5.952;2023-04-03T16:59:42;5.40;;;1.10;;
72590;SDS011;60625;51.212;5.952;2023-04-03T17:04:44;6.00;;;1.20;;
72590;SDS011;60625;51.212;5.952;2023-04-03T17:09:44;5.00;;;0.90;;
72590;SDS011;60625;51.212;5.952;2023-04-03T17:14:44;3.90;;;0.90;;
72590;SDS011;60625;51.212;5.952;2023-04-03T17:19:47;5.20;;;1.10;;
72590;SDS011;60625;51.212;5.952;2023-04-03T17:24:47;8.50;;;1.40;;
72590;SDS011;60625;51.212;5.952;2023-04-03T17:29:48;4.80;;;0.90;;
72590;SDS011;60625;51.212;5.952;2023-04-03T17:34:48;5.80;;;1.00;;
72590;SDS011;60625;51.212;5.952;2023-04-03T17:39:49;6.40;;;1.30;;
72590;SDS011;60625;51.212;5.952;2023-04-03T17:44:49;3.80;;;0.90;;
72590;SDS011;60625;51.212;5.952;2023-04-03T17:49:50;7.30;;;1.10;;
72590;SDS011;60625;51.212;5.952;2023-04-03T17:54:50;6.20;;;1.20;;
72590;SDS011;60625;51.212;5.952;2023-04-03T17:59:51;4.00;;;1.20;;
72590;SDS011;60625;51.212;5.952;2023-04-03T18:04:53;5.80;;;0.70;;
72590;SDS011;60625;51.212;5.952;2023-04-03T18:09:54;5.20;;;1.20;;
72590;SDS011;60625;51.212;5.952;2023-04-03T18:14:57;6.90;;;1.10;;
72590;SDS011;60625;51.212;5.952;2023-04-03T18:19:58;4.80;;;1.40;;
72590;SDS011;60625;51.212;5.952;2023-04-03T18:24:59;5.40;;;1.10;;
72590;SDS011;60625;51.212;5.952;2023-04-03T18:30:05;6.10;;;1.30;;
72590;SDS011;60625;51.212;5.952;2023-04-03T18:35:08;3.90;;;1.00;;
72590;SDS011;60625;51.212;5.952;2023-04-03T18:40:10;4.80;;;1.20;;
72590;SDS011;60625;51.212;5.952;2023-04-03T18:45:12;3.80;;;1.20;;
72590;SDS011;60625;51.212;5.952;2023-04-03T18:50:14;6.60;;;1.30;;
72590;SDS011;60625;51.212;5.952;2023-04-03T18:55:17;5.10;;;0.90;;
72590;SDS011;60625;51.212;5.952;2023-04-03T19:00:19;4.70;;;1.20;;
72590;SDS011;60625;51.212;5.952;2023-04-03T19:05:20;4.70;;;1.10;;
72590;SDS011;60625;51.212;5.952;2023-04-03T19:10:21;7.00;;;1.40;;
72590;SDS011;60625;51.212;5.952;2023-04-03T19:15:23;5.10;;;0.90;;
72590;SDS011;60625;51.212;5.952;2023-04-03T19:20:24;5.70;;;1.40;;
72590;SDS011;60625;51.212;5.952;2023-04-03T19:25:25;6.80;;;1.30;;
72590;SDS011;60625;51.212;5.952;2023-04-03T19:30:26;5.70;;;1.20;;
72590;SDS011;60625;51.212;5.952;2023-04-03T19:35:27;6.70;;;1.30;;
72590;SDS011;60625;51.212;5.952;2023-04-03T19:40:28;6.60;;;1.10;;
72590;SDS011;60625;51.212;5.952;2023-04-03T19:45:28;5.20;;;1.30;;
72590;SDS011;60625;51.212;5.952;2023-04-03T19:50:29;5.60;;;1.40;;
72590;SDS011;60625;51.212;5.952;2023-04-03T19:55:32;4.20;;;1.50;;
72590;SDS011;60625;51.212;5.952;2023-04-03T20:00:32;6.60;;;1.10;;
72590;SDS011;60625;51.212;5.952;2023-04-03T20:05:33;4.90;;;1.30;;
72590;SDS011;60625;51.212;5.952;2023-04-03T20:10:34;7.40;;;1.50;;
72590;SDS011;60625;51.212;5.952;2023-04-03T20:15:40;5.90;;;1.30;;
72590;SDS011;60625;51.212;5.952;2023-04-03T20:20:43;5.90;;;1.80;;
72590;SDS011;60625;51.212;5.952;2023-04-03T20:25:47;4.90;;;1.60;;
72590;SDS011;60625;51.212;5.952;2023-04-03T20:30:50;6.30;;;1.50;;
72590;SDS011;60625;51.212;5.952;2023-04-03T20:35:56;5.30;;;1.30;;
72590;SDS011;60625;51.212;5.952;2023-04-03T20:40:57;5.60;;;1.20;;
72590;SDS011;60625;51.212;5.952;2023-04-03T20:46:00;3.80;;;1.10;;
72590;SDS011;60625;51.212;5.952;2023-04-03T20:51:15;4.80;;;1.40;;
72590;SDS011;60625;51.212;5.952;2023-04-03T20:56:17;5.10;;;1.20;;
72590;SDS011;60625;51.212;5.952;2023-04-03T21:01:20;6.00;;;1.40;;
72590;SDS011;60625;51.212;5.952;2023-04-03T21:23:52;7.20;;;1.80;;
72590;SDS011;60625;51.212;5.952;2023-04-03T21:28:54;5.80;;;1.30;;
72590;SDS011;60625;51.212;5.952;2023-04-03T21:33:55;6.00;;;1.10;;
72590;SDS011;60625;51.212;5.952;2023-04-03T21:38:55;8.70;;;1.40;;
72590;SDS011;60625;51.212;5.952;2023-04-03T21:43:57;4.60;;;1.30;;
72590;SDS011;60625;51.212;5.952;2023-04-03T21:48:58;7.10;;;1.60;;
72590;SDS011;60625;51.212;5.952;2023-04-03T21:53:58;12.50;;;1.40;;
72590;SDS011;60625;51.212;5.952;2023-04-03T21:59:02;7.10;;;1.30;;
72590;SDS011;60625;51.212;5.952;2023-04-03T22:04:02;6.60;;;1.30;;
72590;SDS011;60625;51.212;5.952;2023-04-03T22:09:03;6.60;;;1.30;;
72590;SDS011;60625;51.212;5.952;2023-04-03T22:14:04;5.60;;;1.00;;
72590;SDS011;60625;51.212;5.952;2023-04-03T22:19:05;4.40;;;1.00;;
72590;SDS011;60625;51.212;5.952;2023-04-03T22:24:06;4.90;;;1.00;;
72590;SDS011;60625;51.212;5.952;2023-04-03T22:29:07;5.00;;;1.20;;
72590;SDS011;60625;51.212;5.952;2023-04-03T22:34:07;4.40;;;1.20;;
72590;SDS011;60625;51.212;5.952;2023-04-03T22:39:08;5.00;;;0.90;;
72590;SDS011;60625;51.212;5.952;2023-04-03T22:44:11;3.80;;;0.90;;
72590;SDS011;60625;51.212;5.952;2023-04-03T22:49:12;4.40;;;1.20;;
72590;SDS011;60625;51.212;5.952;2023-04-03T22:54:12;6.20;;;1.00;;
72590;SDS011;60625;51.212;5.952;2023-04-03T22:59:13;2.70;;;0.90;;
72590;SDS011;60625;51.212;5.952;2023-04-03T23:04:14;3.30;;;0.90;;
72590;SDS011;60625;51.212;5.952;2023-04-03T23:09:15;4.80;;;0.80;;
72590;SDS011;60625;51.212;5.952;2023-04-03T23:14:16;4.70;;;1.00;;
72590;SDS011;60625;51.212;5.952;2023-04-03T23:19:16;4.70;;;1.10;;
72590;SDS011;60625;51.212;5.952;2023-04-03T23:24:17;6.30;;;1.60;;
72590;SDS011;60625;51.212;5.952;2023-04-03T23:29:19;4.70;;;1.20;;
72590;SDS011;60625;51.212;5.952;2023-04-03T23:34:19;5.70;;;1.10;;
72590;SDS011;60625;51.212;5.952;2023-04-03T23:39:20;6.40;;;1.30;;
72590;SDS011;60625;51.212;5.952;2023-04-03T23:44:22;5.50;;;1.30;;
72590;SDS011;60625;51.212;5.952;2023-04-03T23:49:22;4.30;;;1.20;;
72590;SDS011;60625;51.212;5.952;2023-04-03T23:54:23;6.10;;;1.00;;
72590;SDS011;60625;51.212;5.952;2023-04-03T23:59:23;5.20;;;1.00;;
